National Weather Service United States Department of Commerce

 

Aviation Weather Center TAFs Radar Soundings/Model Data Soaring
NWS Wichita Home Page Hazardous Weather Outlook NWS Graphical Forecasts

 

Wichita (ICT)
Hutchinson (HUT)
Tactical Decision Aid
 
Tactical Decision Aid
 

 
000
FTUS43 KICT 301126
TAFICT
TAF
KICT 301126Z 3012/3112 03013KT P6SM OVC030
FM301300 02013KT P6SM OVC040
FM310500 02007KT P6SM SCT190=
 
000
FTUS43 KICT 301126
TAFHUT
TAF
KHUT 301126Z 3012/3112 01012KT P6SM OVC040
FM311100 34004KT P6SM SCT220=
Salina (SLN) Russell (RSL)
Tactical Decision Aid
Tactical Decision Aid

 
000
FTUS43 KICT 301126
TAFSLN
TAF
KSLN 301126Z 3012/3112 01011KT P6SM OVC050=

 
000
FTUS43 KICT 301126
TAFRSL
TAF
KRSL 301126Z 3012/3112 01009KT P6SM FEW015 OVC050
FM301300 02009KT P6SM OVC050
FM310600 32005KT P6SM SCT120=
Chanute (CNU) Great Bend (GBD)
Tactical Decision Aid
Tactical Decision Aid

 
000
FTUS43 KICT 301126
TAFCNU
TAF
KCNU 301126Z 3012/3112 01012KT P6SM OVC025
FM301400 02012KT P6SM OVC050=

 
000
FTUS43 KICT 301126
TAFGBD
TAF
KGBD 301126Z 3012/3112 01012KT P6SM -SN SCT016 OVC050
FM301300 02011KT P6SM OVC030
FM301700 03008KT P6SM BKN045=
 
NWS Wichita Aviation Forecast Discussion

 

 

IMPORTANT: This page is a tool to help pilots better visualize weather and weather-related hazards, and is not a substitute for a weather briefing obtained from a Flight Service Station (1-800-WXBRIEF). The information contained here does not meet the FAA requirements for a pre-flight weather brief. Therefore, it is important that pilots call and obtain a briefing from an FAA Flight Service Specialist.